Time;durP1;ratioP1;P1;durP2;ratioP2;P2;SDS_P1;SDS_P2;PMS_P1;PMS_P2;Temp;Humidity;BMP_temperature;BMP_pressure;BME280_temperature;BME280_humidity;BME280_pressure;Samples;Min_cycle;Max_cycle;Signal;HPM_P1;HPM_P2
2022/07/28 00:02:17;;;;;;;2.95;1.50;;;;;;;14.75;60.61;101760.16;5001268;28;20030;-85
2022/07/28 00:04:42;;;;;;;3.20;1.55;;;;;;;14.74;60.69;101750.41;4996304;28;20045;-85
2022/07/28 00:07:08;;;;;;;4.05;1.48;;;;;;;14.66;60.82;101753.50;5015014;28;20025;-85
2022/07/28 00:09:33;;;;;;;3.35;1.65;;;;;;;14.63;61.07;101750.97;5007607;28;20033;-85
2022/07/28 00:11:58;;;;;;;4.55;1.70;;;;;;;14.65;61.27;101749.09;5007749;28;20061;-86
2022/07/28 00:14:25;;;;;;;2.85;1.58;;;;;;;14.60;61.34;101754.69;5000239;28;20018;-86
2022/07/28 00:16:50;;;;;;;4.70;1.60;;;;;;;14.50;61.38;101757.91;5002708;28;20025;-86
2022/07/28 00:19:16;;;;;;;3.80;1.70;;;;;;;14.45;61.40;101764.34;5000756;28;20026;-84
2022/07/28 00:21:41;;;;;;;2.28;1.52;;;;;;;14.46;61.67;101759.84;5018489;28;20095;-85
2022/07/28 00:24:06;;;;;;;2.72;1.58;;;;;;;14.35;61.98;101760.44;5020601;28;20049;-84
2022/07/28 00:26:33;;;;;;;3.58;1.50;;;;;;;14.35;61.98;101764.94;5016948;28;20038;-84
2022/07/28 00:28:58;;;;;;;3.95;1.88;;;;;;;14.26;62.21;101760.94;5007581;28;20034;-85
2022/07/28 00:31:24;;;;;;;3.65;1.40;;;;;;;14.26;62.06;101758.25;5011096;28;20026;-85
2022/07/28 00:33:49;;;;;;;3.83;2.10;;;;;;;14.24;62.37;101762.78;4989015;28;20033;-85
2022/07/28 00:36:14;;;;;;;5.82;1.70;;;;;;;14.17;62.42;101751.56;5006903;28;20076;-84
2022/07/28 00:38:40;;;;;;;5.28;1.80;;;;;;;14.20;62.69;101761.22;4995575;28;20025;-85
2022/07/28 00:41:11;;;;;;;3.45;1.40;;;;;;;14.14;62.86;101761.56;4998731;28;20030;-85
2022/07/28 00:43:41;;;;;;;3.13;1.77;;;;;;;14.12;63.17;101755.41;5008820;28;20459;-84
2022/07/28 00:46:07;;;;;;;3.58;1.75;;;;;;;14.05;63.17;101746.81;5003289;28;20088;-85
2022/07/28 00:48:36;;;;;;;3.88;1.60;;;;;;;13.96;63.44;101744.59;5001551;28;20057;-85
2022/07/28 00:51:02;;;;;;;4.93;1.63;;;;;;;13.97;63.47;101746.34;4999290;28;20033;-86
2022/07/28 00:53:28;;;;;;;5.47;1.70;;;;;;;14.01;63.52;101749.75;5004723;28;20033;-86
2022/07/28 00:55:53;;;;;;;3.55;1.50;;;;;;;14.03;63.41;101743.34;5003497;28;20025;-84
2022/07/28 00:58:19;;;;;;;3.58;1.60;;;;;;;14.05;63.39;101745.97;4995789;28;20033;-85
2022/07/28 01:00:44;;;;;;;3.33;1.48;;;;;;;14.01;63.21;101745.25;5016527;28;20061;-85
2022/07/28 01:03:10;;;;;;;3.08;1.80;;;;;;;13.95;63.44;101740.19;5013275;28;20120;-85
2022/07/28 01:06:05;;;;;;;5.72;1.50;;;;;;;13.98;63.13;101734.69;4993849;28;20173;-85
2022/07/28 01:08:51;;;;;;;5.03;1.83;;;;;;;13.95;63.26;101734.84;4988817;28;20038;-85
2022/07/28 01:11:50;;;;;;;5.03;1.88;;;;;;;13.94;63.30;101746.50;4995010;28;20113;-85
2022/07/28 01:14:16;;;;;;;4.35;1.75;;;;;;;13.88;63.85;101739.66;4994112;28;20042;-85
2022/07/28 01:17:02;;;;;;;4.15;1.50;;;;;;;13.85;63.18;101731.78;5001419;28;20414;-85
2022/07/28 01:19:57;;;;;;;5.03;2.00;;;;;;;13.83;63.74;101735.47;5001944;28;20052;-85
2022/07/28 01:22:28;;;;;;;6.38;1.70;;;;;;;13.76;64.18;101739.41;5006507;28;20076;-85
2022/07/28 01:25:20;;;;;;;6.80;1.70;;;;;;;13.78;64.11;101735.69;5001486;28;20017;-84
2022/07/28 01:28:00;;;;;;;4.03;1.60;;;;;;;13.72;64.49;101736.00;5002870;28;20710;-84
2022/07/28 01:30:35;;;;;;;3.88;1.50;;;;;;;13.62;64.59;101737.41;5004201;28;20044;-84
2022/07/28 01:33:04;;;;;;;3.50;1.60;;;;;;;13.62;64.80;101737.41;4993924;28;20116;-85
2022/07/28 01:35:37;;;;;;;4.28;1.77;;;;;;;13.56;64.86;101727.88;4991493;28;20048;-85
2022/07/28 01:41:29;;;;;;;4.57;1.90;;;;;;;13.51;65.11;101721.88;4984047;28;20049;-84
2022/07/28 01:43:58;;;;;;;10.63;2.20;;;;;;;13.45;65.40;101719.50;4985850;28;20030;-85
2022/07/28 01:46:25;;;;;;;5.80;1.75;;;;;;;13.48;65.44;101730.06;4974289;28;20034;-84
2022/07/28 01:48:52;;;;;;;3.03;1.88;;;;;;;13.38;65.58;101723.44;4977610;28;20035;-83
2022/07/28 01:51:19;;;;;;;5.00;1.92;;;;;;;13.37;65.56;101710.97;4994476;28;20470;-84
2022/07/28 01:53:46;;;;;;;3.55;2.10;;;;;;;13.34;65.78;101719.19;4989829;28;20439;-85
2022/07/28 01:56:14;;;;;;;3.08;1.73;;;;;;;13.27;66.01;101715.91;4983143;28;20034;-84
2022/07/28 01:58:42;;;;;;;3.13;1.67;;;;;;;13.19;66.10;101713.56;4982015;28;20042;-84
2022/07/28 02:01:11;;;;;;;4.55;1.85;;;;;;;13.12;66.50;101709.44;4993618;28;20062;-85
2022/07/28 02:03:38;;;;;;;3.38;1.73;;;;;;;13.14;66.42;101714.75;4977165;28;20524;-85
2022/07/28 02:06:05;;;;;;;8.52;2.00;;;;;;;13.12;66.18;101712.13;4988524;28;20025;-84
2022/07/28 02:08:33;;;;;;;7.28;1.90;;;;;;;13.13;66.38;101710.34;4976276;28;20038;-84
2022/07/28 02:13:45;;;;;;;3.17;2.08;;;;;;;13.02;66.91;101699.28;4997316;28;20076;-84
2022/07/28 02:16:13;;;;;;;5.22;1.80;;;;;;;12.96;66.88;101704.00;4976848;28;20038;-85
2022/07/28 02:18:40;;;;;;;5.28;1.98;;;;;;;12.96;67.19;101704.00;4988245;28;20035;-85
2022/07/28 02:21:06;;;;;;;4.93;1.80;;;;;;;12.99;67.19;101694.09;4992792;28;20042;-85
2022/07/28 02:23:33;;;;;;;4.20;1.92;;;;;;;12.91;67.30;101697.97;5000214;28;20026;-85
2022/07/28 02:26:01;;;;;;;4.43;2.00;;;;;;;12.84;67.50;101691.22;4998362;28;20026;-85
2022/07/28 02:28:27;;;;;;;4.18;2.08;;;;;;;12.82;67.61;101698.41;4986902;28;20034;-84
2022/07/28 02:31:21;;;;;;;5.20;2.10;;;;;;;12.84;66.70;101699.22;4982965;28;20533;-84
2022/07/28 02:33:47;;;;;;;5.32;1.77;;;;;;;12.85;67.50;101705.44;4984738;28;20038;-84
2022/07/28 02:36:19;;;;;;;3.65;1.80;;;;;;;12.78;67.71;101702.16;4982285;28;20109;-84
2022/07/28 02:38:48;;;;;;;4.93;1.90;;;;;;;12.73;67.80;101696.19;4981960;28;20058;-83
2022/07/28 02:41:41;;;;;;;5.53;2.10;;;;;;;12.77;66.89;101710.25;4986738;28;20150;-84
2022/07/28 02:44:16;;;;;;;4.93;1.77;;;;;;;12.68;68.05;101701.72;4990699;28;20034;-84
2022/07/28 02:46:46;;;;;;;4.13;1.70;;;;;;;12.68;68.01;101703.53;4975764;28;20035;-84
2022/07/28 02:49:20;;;;;;;7.28;2.00;;;;;;;12.66;68.25;101697.38;4987384;28;20026;-84
2022/07/28 02:51:48;;;;;;;5.63;1.95;;;;;;;12.64;68.06;101697.47;4985375;28;20030;-84
2022/07/28 02:54:16;;;;;;;6.00;2.20;;;;;;;12.54;68.24;101692.59;4989031;28;20031;-84
2022/07/28 02:56:43;;;;;;;4.35;1.98;;;;;;;12.48;68.65;101684.88;4991014;28;20043;-84
2022/07/28 02:59:09;;;;;;;3.83;1.80;;;;;;;12.45;68.63;101689.41;4993361;28;20031;-83
2022/07/28 03:01:35;;;;;;;5.30;1.90;;;;;;;12.40;68.77;101694.09;4999611;28;20050;-84
2022/07/28 03:04:01;;;;;;;3.72;1.85;;;;;;;12.42;69.20;101697.59;5012188;28;20042;-84
2022/07/28 03:06:26;;;;;;;6.43;2.08;;;;;;;12.36;69.11;101691.63;5003799;28;20034;-84
2022/07/28 03:08:52;;;;;;;4.22;1.83;;;;;;;12.31;69.21;101697.19;4996141;28;20034;-85
2022/07/28 03:11:17;;;;;;;2.33;1.80;;;;;;;12.27;69.36;101695.59;5001213;28;20042;-84
2022/07/28 03:13:43;;;;;;;3.67;1.85;;;;;;;12.18;69.30;101690.66;4992088;28;20045;-84
2022/07/28 03:16:08;;;;;;;4.32;1.90;;;;;;;12.25;69.63;101697.47;4990681;28;20046;-84
2022/07/28 03:18:33;;;;;;;4.25;2.15;;;;;;;12.20;69.54;101689.63;4995204;28;20031;-84
2022/07/28 03:20:59;;;;;;;5.30;2.00;;;;;;;12.11;69.70;101690.06;4987778;28;20489;-84
2022/07/28 03:23:31;;;;;;;2.45;1.80;;;;;;;12.10;70.00;101699.00;4998560;28;20116;-84
2022/07/28 03:26:04;;;;;;;4.10;1.83;;;;;;;12.12;69.84;101701.59;4991361;28;20479;-84
2022/07/28 03:28:30;;;;;;;3.85;2.08;;;;;;;12.02;70.30;101702.94;4986439;28;20061;-84
2022/07/28 03:31:08;;;;;;;6.18;2.45;;;;;;;12.01;69.94;101701.22;4983642;28;20105;-83
2022/07/28 03:33:33;;;;;;;5.05;2.17;;;;;;;11.97;70.30;101697.81;4993677;28;20025;-83
2022/07/28 03:36:04;;;;;;;3.72;2.00;;;;;;;11.99;70.54;101703.06;4990002;28;20026;-84
2022/07/28 03:38:36;;;;;;;5.68;1.92;;;;;;;11.94;70.60;101693.44;4989869;28;20097;-84
2022/07/28 03:41:03;;;;;;;3.90;2.10;;;;;;;11.91;70.60;101693.59;4986059;28;20252;-84
2022/07/28 03:43:30;;;;;;;3.95;2.20;;;;;;;11.90;71.17;101696.31;4980934;28;20031;-84
2022/07/28 03:45:55;;;;;;;4.82;2.08;;;;;;;11.89;70.89;101699.94;4976503;28;20480;-84
2022/07/28 03:48:27;;;;;;;3.58;2.50;;;;;;;11.89;71.03;101697.25;4987435;28;20045;-84
2022/07/28 03:50:53;;;;;;;3.53;2.13;;;;;;;11.76;71.54;101686.22;4987326;28;20058;-84
2022/07/28 03:53:21;;;;;;;3.35;2.35;;;;;;;11.76;71.57;101699.56;4977517;28;20477;-84
2022/07/28 03:55:49;;;;;;;3.50;2.80;;;;;;;11.75;71.64;101696.97;4974337;28;20033;-83
2022/07/28 03:58:25;;;;;;;4.63;2.92;;;;;;;11.73;71.55;101697.88;4981604;28;20045;-83
2022/07/28 04:00:51;;;;;;;6.13;2.60;;;;;;;11.68;72.11;101697.19;4977040;28;20046;-85
2022/07/28 04:03:18;;;;;;;3.75;2.55;;;;;;;11.68;72.11;101696.34;4972199;28;20118;-84
2022/07/28 04:05:43;;;;;;;8.77;3.10;;;;;;;11.62;72.36;101685.91;4978355;28;20106;-84
2022/07/28 04:08:09;;;;;;;5.05;2.60;;;;;;;11.66;72.22;101687.50;4978746;28;20588;-85
2022/07/28 04:10:35;;;;;;;4.68;2.70;;;;;;;11.64;72.19;101684.91;4971725;28;20034;-84
2022/07/28 04:13:00;;;;;;;5.28;2.58;;;;;;;11.58;72.47;101689.63;4985084;28;20125;-84
2022/07/28 04:15:28;;;;;;;6.20;2.70;;;;;;;11.59;72.09;101686.06;4980315;28;20070;-83
2022/07/28 04:17:54;;;;;;;8.13;2.70;;;;;;;11.64;72.20;101697.41;4983753;28;20085;-85
2022/07/28 04:20:21;;;;;;;4.25;2.50;;;;;;;11.61;72.33;101701.03;4986261;28;20034;-84
2022/07/28 04:22:48;;;;;;;4.63;2.60;;;;;;;11.61;72.26;101693.03;4977045;28;20034;-84
2022/07/28 04:25:15;;;;;;;5.80;2.65;;;;;;;11.66;72.41;101700.84;4983030;28;20153;-85
2022/07/28 04:27:42;;;;;;;4.38;2.28;;;;;;;11.67;72.13;101694.59;4987564;28;20033;-84
2022/07/28 04:30:12;;;;;;;4.57;3.00;;;;;;;11.64;72.12;101687.59;4981311;28;20038;-84
2022/07/28 04:32:38;;;;;;;5.65;2.40;;;;;;;11.66;72.42;101690.19;4988377;28;20025;-84
2022/07/28 04:35:05;;;;;;;6.22;2.70;;;;;;;11.65;72.33;101685.78;4984237;28;20065;-85
2022/07/28 04:37:30;;;;;;;8.77;3.47;;;;;;;11.66;72.29;101685.75;4976489;28;20357;-83
2022/07/28 04:39:55;;;;;;;6.55;3.00;;;;;;;11.67;72.38;101684.81;4972732;28;20038;-83
2022/07/28 04:42:21;;;;;;;5.72;2.95;;;;;;;11.70;72.20;101686.47;4980650;28;20027;-84
2022/07/28 04:44:46;;;;;;;6.35;2.65;;;;;;;11.73;72.18;101694.34;4974600;28;20018;-85
2022/07/28 04:47:12;;;;;;;5.30;2.75;;;;;;;11.73;72.30;101691.66;4987094;28;20038;-84
2022/07/28 04:49:38;;;;;;;4.30;2.42;;;;;;;11.74;72.46;101693.41;4982338;28;20019;-84
2022/07/28 04:52:03;;;;;;;5.13;2.90;;;;;;;11.75;72.45;101692.50;4974135;28;20034;-85
2022/07/28 04:54:29;;;;;;;4.63;2.75;;;;;;;11.79;72.45;101691.44;4981431;28;20136;-83
2022/07/28 04:56:54;;;;;;;3.63;2.30;;;;;;;11.79;72.43;101686.09;4982564;28;20116;-84
2022/07/28 04:59:19;;;;;;;5.05;2.97;;;;;;;11.82;72.28;101688.59;4979029;28;20042;-85
2022/07/28 05:01:44;;;;;;;4.78;2.70;;;;;;;11.88;72.55;101698.19;4984033;28;20483;-84
2022/07/28 05:04:10;;;;;;;6.63;2.97;;;;;;;11.93;72.35;101696.19;4984562;28;20033;-85
2022/07/28 05:06:35;;;;;;;4.28;2.55;;;;;;;12.01;72.12;101702.06;4972251;28;20030;-84
2022/07/28 05:09:00;;;;;;;6.45;2.80;;;;;;;12.00;71.88;101691.44;4975659;28;20105;-84
2022/07/28 05:11:26;;;;;;;7.18;3.45;;;;;;;12.08;71.85;101703.56;4977648;28;20118;-84
2022/07/28 05:13:51;;;;;;;4.10;2.70;;;;;;;12.16;71.46;101693.41;4987935;28;20726;-84
2022/07/28 05:16:18;;;;;;;6.30;2.80;;;;;;;12.22;71.18;101692.25;4985972;28;20038;-84
2022/07/28 05:18:43;;;;;;;6.03;3.10;;;;;;;12.32;71.37;101703.38;4979439;28;20026;-84
2022/07/28 05:21:08;;;;;;;5.40;3.00;;;;;;;12.39;71.09;101695.03;4988673;28;20470;-85
2022/07/28 05:23:34;;;;;;;6.82;2.70;;;;;;;12.54;70.81;101697.94;4978533;28;20027;-84
2022/07/28 05:25:59;;;;;;;5.30;2.75;;;;;;;12.61;70.28;101700.28;4973950;28;20031;-84
2022/07/28 05:28:24;;;;;;;6.38;2.70;;;;;;;12.75;70.02;101690.75;4987611;28;20026;-84
2022/07/28 05:30:50;;;;;;;8.52;2.90;;;;;;;12.98;70.05;101687.00;4986991;28;20038;-84
2022/07/28 05:33:15;;;;;;;6.60;3.10;;;;;;;13.17;69.11;101695.91;4985923;28;20045;-84
2022/07/28 05:35:41;;;;;;;5.88;2.85;;;;;;;13.35;68.27;101691.50;4981253;28;20038;-85
2022/07/28 05:38:06;;;;;;;8.00;3.92;;;;;;;13.52;67.93;101686.16;4975394;28;20027;-85
2022/07/28 05:40:32;;;;;;;7.80;2.78;;;;;;;13.81;67.85;101703.44;4972376;28;20031;-84
2022/07/28 05:42:57;;;;;;;5.63;2.50;;;;;;;14.02;66.84;101697.94;4972351;28;20033;-84
2022/07/28 05:45:22;;;;;;;4.35;2.53;;;;;;;14.19;66.31;101692.56;4983573;28;20056;-84
2022/07/28 05:47:51;;;;;;;4.43;2.28;;;;;;;14.28;64.89;101699.25;4976276;28;20039;-85
2022/07/28 05:50:19;;;;;;;5.30;2.78;;;;;;;14.34;64.78;101696.25;4984550;28;20040;-85
2022/07/28 05:52:45;;;;;;;8.48;3.03;;;;;;;14.25;64.70;101697.56;4982896;28;20034;-84
2022/07/28 05:55:11;;;;;;;6.35;2.50;;;;;;;14.27;64.72;101697.53;4982019;28;20027;-84
2022/07/28 05:57:37;;;;;;;7.97;2.00;;;;;;;14.38;65.21;101698.69;4981191;28;20054;-84
2022/07/28 06:00:05;;;;;;;7.03;2.30;;;;;;;14.47;64.52;101704.50;4981085;28;20038;-85
2022/07/28 06:02:30;;;;;;;4.68;2.03;;;;;;;14.55;63.99;101695.13;4989084;28;20030;-83
2022/07/28 06:04:56;;;;;;;4.55;2.50;;;;;;;14.61;64.06;101701.97;4991372;28;20029;-83
2022/07/28 06:07:21;;;;;;;6.97;2.67;;;;;;;14.70;63.43;101701.47;4982290;28;20492;-84
2022/07/28 06:09:46;;;;;;;4.13;2.22;;;;;;;14.78;63.40;101701.06;4985564;28;20026;-84
2022/07/28 06:12:12;;;;;;;3.63;2.15;;;;;;;14.79;62.43;101700.09;4995669;28;20018;-84
2022/07/28 06:14:37;;;;;;;3.40;1.75;;;;;;;14.85;62.98;101689.91;4991804;28;20053;-84
2022/07/28 06:17:02;;;;;;;5.75;2.08;;;;;;;14.89;62.56;101691.47;4997893;28;20073;-84
2022/07/28 06:19:27;;;;;;;7.93;2.35;;;;;;;14.98;62.81;101691.91;4988973;28;20030;-83
2022/07/28 06:21:53;;;;;;;3.90;2.25;;;;;;;14.92;62.17;101680.59;4994287;28;20834;-83
2022/07/28 06:24:18;;;;;;;4.22;2.08;;;;;;;15.02;61.50;101682.75;4994767;28;20057;-85
2022/07/28 06:26:43;;;;;;;7.03;2.15;;;;;;;15.01;61.43;101683.72;4993073;28;20042;-84
2022/07/28 06:29:09;;;;;;;2.65;1.80;;;;;;;15.00;61.50;101687.31;4997032;28;20107;-86
2022/07/28 06:31:34;;;;;;;5.57;2.35;;;;;;;15.06;61.13;101682.50;4976386;28;20109;-84
2022/07/28 06:34:00;;;;;;;6.72;1.73;;;;;;;15.04;61.05;101683.50;4998750;28;20057;-83
2022/07/28 06:36:25;;;;;;;6.80;1.80;;;;;;;15.03;61.29;101681.78;4988668;28;20045;-83
2022/07/28 06:38:50;;;;;;;3.10;1.67;;;;;;;15.12;61.36;101686.63;4977878;28;20337;-82
2022/07/28 06:41:15;;;;;;;2.88;1.60;;;;;;;15.20;60.79;101695.09;4982119;28;20037;-83
2022/07/28 06:43:41;;;;;;;6.22;2.15;;;;;;;15.36;60.56;101690.59;4986704;28;20037;-85
2022/07/28 06:46:06;;;;;;;6.07;1.77;;;;;;;15.43;59.67;101683.94;4987449;28;20113;-85
2022/07/28 06:48:32;;;;;;;4.57;2.00;;;;;;;15.53;59.69;101688.75;4978101;28;20037;-84
2022/07/28 06:50:58;;;;;;;4.75;1.80;;;;;;;15.51;59.36;101683.50;4986705;28;20027;-83
2022/07/28 06:53:24;;;;;;;3.85;1.88;;;;;;;15.62;59.12;101681.03;4977490;28;20023;-83
2022/07/28 06:55:49;;;;;;;6.70;2.58;;;;;;;15.74;59.02;101684.84;4973895;28;20502;-85
2022/07/28 06:58:15;;;;;;;7.68;2.10;;;;;;;16.02;58.85;101693.94;4974653;28;20077;-84
2022/07/28 07:00:40;;;;;;;5.78;1.88;;;;;;;16.34;58.11;101690.16;4977935;28;20086;-83
2022/07/28 07:03:05;;;;;;;6.50;2.30;;;;;;;16.47;56.75;101700.13;4972679;28;20540;-83
2022/07/28 07:05:30;;;;;;;3.67;1.70;;;;;;;16.67;56.26;101695.25;4994044;28;20511;-84
2022/07/28 07:07:56;;;;;;;8.27;2.20;;;;;;;16.81;55.82;101698.94;4991595;28;20026;-83
2022/07/28 07:10:22;;;;;;;4.55;1.73;;;;;;;16.92;55.35;101709.84;4973911;28;20042;-85
2022/07/28 07:12:47;;;;;;;5.38;1.75;;;;;;;16.91;55.40;101706.31;4976215;28;20450;-83
2022/07/28 07:15:12;;;;;;;3.03;1.58;;;;;;;17.15;55.19;101689.56;4979467;28;20476;-83
2022/07/28 07:17:38;;;;;;;4.57;1.60;;;;;;;17.47;54.02;101691.94;4985965;28;20034;-82
2022/07/28 07:20:05;;;;;;;4.97;1.52;;;;;;;17.53;53.82;101694.25;4992137;28;20033;-82
2022/07/28 07:22:31;;;;;;;5.20;2.15;;;;;;;17.63;54.03;101688.13;4985410;28;20038;-83
2022/07/28 07:24:56;;;;;;;4.15;1.98;;;;;;;17.73;52.69;101692.94;4975740;28;20034;-84
2022/07/28 07:27:21;;;;;;;4.05;1.92;;;;;;;18.00;52.04;101700.97;4985685;28;20038;-82
2022/07/28 07:29:46;;;;;;;4.72;1.67;;;;;;;18.27;51.84;101698.22;4988394;28;20030;-81
2022/07/28 07:32:12;;;;;;;6.38;1.60;;;;;;;18.58;50.47;101697.78;4984126;28;20043;-83
2022/07/28 07:34:38;;;;;;;2.85;1.50;;;;;;;19.05;50.51;101688.13;4978388;28;20030;-82
2022/07/28 07:37:04;;;;;;;4.18;1.55;;;;;;;19.01;49.11;101691.16;4982815;28;20029;-82
2022/07/28 07:39:30;;;;;;;4.22;1.73;;;;;;;18.62;49.35;101690.34;4983798;28;20034;-83
2022/07/28 07:41:56;;;;;;;7.30;2.42;;;;;;;18.50;50.67;101692.06;4983964;28;20022;-82
2022/07/28 07:44:21;;;;;;;7.78;2.08;;;;;;;18.94;49.90;101679.09;4983510;28;20023;-83
2022/07/28 07:46:47;;;;;;;5.60;1.60;;;;;;;19.59;48.23;101671.50;4984043;28;20415;-82
2022/07/28 07:49:12;;;;;;;5.13;1.92;;;;;;;20.06;46.72;101667.00;4972552;28;20031;-82
2022/07/28 07:51:37;;;;;;;5.75;1.70;;;;;;;20.73;45.63;101681.59;4984973;28;20058;-83
2022/07/28 07:54:03;;;;;;;7.43;3.38;;;;;;;21.07;44.87;101675.19;4988476;28;20058;-83
2022/07/28 07:56:28;;;;;;;4.22;1.60;;;;;;;21.56;44.13;101673.81;4981096;28;20026;-83
2022/07/28 07:58:53;;;;;;;3.85;1.55;;;;;;;21.96;42.36;101677.72;4985617;28;20032;-81
2022/07/28 08:01:19;;;;;;;3.67;1.40;;;;;;;21.86;41.61;101677.63;4983453;28;20397;-82
2022/07/28 08:03:45;;;;;;;3.92;1.40;;;;;;;22.01;41.99;101664.63;4980538;28;20039;-82
2022/07/28 08:06:10;;;;;;;5.15;1.45;;;;;;;22.21;41.11;101669.22;4980929;28;20022;-82
2022/07/28 08:08:35;;;;;;;2.58;1.30;;;;;;;22.39;40.75;101661.31;4976475;28;20164;-83
2022/07/28 08:11:01;;;;;;;4.60;1.27;;;;;;;22.75;40.05;101669.91;4981128;28;20027;-81
2022/07/28 08:13:26;;;;;;;3.83;1.40;;;;;;;23.45;39.71;101660.81;4982967;28;20030;-83
2022/07/28 08:15:51;;;;;;;6.00;1.60;;;;;;;23.57;38.34;101664.22;4977944;28;20407;-83
2022/07/28 08:18:17;;;;;;;5.68;1.48;;;;;;;23.78;38.03;101664.13;4979774;28;20034;-82
2022/07/28 08:20:42;;;;;;;3.30;1.17;;;;;;;23.96;37.68;101653.41;4983011;28;20034;-79
2022/07/28 08:23:07;;;;;;;5.55;1.50;;;;;;;24.27;36.72;101665.75;4984904;28;20136;-81
2022/07/28 08:25:37;;;;;;;4.35;1.60;;;;;;;24.08;36.76;101665.81;4988114;28;20022;-82
2022/07/28 08:28:02;;;;;;;6.40;1.55;;;;;;;24.28;36.22;101663.88;4985543;28;20034;-81
2022/07/28 08:30:28;;;;;;;5.15;1.58;;;;;;;24.75;35.64;101666.63;4976016;28;20027;-90
2022/07/28 08:32:53;;;;;;;3.45;1.48;;;;;;;25.12;35.75;101657.56;4983810;28;20631;-81
2022/07/28 08:35:18;;;;;;;3.85;1.40;;;;;;;25.07;35.01;101658.00;4979324;28;20057;-81
2022/07/28 08:37:44;;;;;;;4.78;1.40;;;;;;;25.73;35.15;101660.38;4984976;28;20038;-80
2022/07/28 08:40:16;;;;;;;4.82;1.70;;;;;;;26.56;32.78;101652.66;4983146;28;20073;-80
2022/07/28 08:43:02;;;;;;;2.80;1.10;;;;;;;27.10;33.46;101657.88;4983555;28;20053;-80
2022/07/28 08:45:29;;;;;;;4.80;1.60;;;;;;;27.40;31.72;101650.91;4976822;28;20045;-80
2022/07/28 08:47:56;;;;;;;4.70;1.25;;;;;;;27.52;30.93;101654.19;4978162;28;20560;-80
2022/07/28 08:50:23;;;;;;;6.07;1.75;;;;;;;27.56;30.82;101667.34;4976488;28;20105;-79
2022/07/28 08:52:50;;;;;;;5.18;1.40;;;;;;;27.19;30.70;101654.13;4990079;28;20019;-80
2022/07/28 08:55:22;;;;;;;4.45;1.38;;;;;;;26.68;32.22;101652.41;4978199;28;20057;-80
2022/07/28 08:57:48;;;;;;;2.78;1.05;;;;;;;27.06;32.18;101665.50;4987715;28;20371;-80
2022/07/28 09:00:14;;;;;;;5.63;1.55;;;;;;;27.21;30.17;101662.16;4984258;28;20042;-80
2022/07/28 09:02:41;;;;;;;4.93;1.30;;;;;;;27.75;30.24;101657.97;4986152;28;20086;-81
2022/07/28 09:05:07;;;;;;;4.25;1.60;;;;;;;28.08;29.86;101655.22;4974196;28;20030;-79
2022/07/28 09:07:36;;;;;;;5.07;1.63;;;;;;;28.29;29.32;101660.16;4976591;28;20043;-80
2022/07/28 09:10:04;;;;;;;4.20;1.35;;;;;;;27.92;29.67;101649.75;4978325;28;20101;-80
2022/07/28 09:12:32;;;;;;;3.65;1.40;;;;;;;28.43;29.25;101643.06;4985195;28;20030;-81
2022/07/28 09:14:58;;;;;;;4.35;1.27;;;;;;;29.19;28.36;101636.03;4973863;28;20522;-80
2022/07/28 09:17:23;;;;;;;4.18;1.23;;;;;;;29.48;27.13;101632.59;4994158;28;20289;-80
2022/07/28 09:19:48;;;;;;;4.25;1.30;;;;;;;29.47;27.11;101616.28;4975133;28;20062;-80
2022/07/28 09:22:13;;;;;;;5.15;1.40;;;;;;;29.62;26.72;101628.22;4983094;28;20506;-82
2022/07/28 09:24:41;;;;;;;3.83;1.30;;;;;;;29.97;27.02;101617.59;4979727;28;20041;-80
2022/07/28 09:27:09;;;;;;;4.22;1.50;;;;;;;30.71;26.05;101617.63;4975845;28;20031;-81
2022/07/28 09:29:36;;;;;;;3.33;1.45;;;;;;;30.56;25.57;101620.41;4978223;28;20037;-82
2022/07/28 09:32:03;;;;;;;4.20;1.63;;;;;;;30.29;26.13;101612.84;4985923;28;20042;-80
2022/07/28 09:34:39;;;;;;;3.25;1.20;;;;;;;30.32;25.97;101610.56;4980993;28;20106;-82
2022/07/28 09:37:04;;;;;;;3.42;1.02;;;;;;;29.77;26.28;101609.91;4971569;28;20022;-81
2022/07/28 09:39:35;;;;;;;4.10;1.23;;;;;;;30.44;26.59;101606.31;4985590;28;20427;-81
2022/07/28 09:42:01;;;;;;;2.47;1.17;;;;;;;30.78;24.91;101604.03;4977743;28;20058;-81
2022/07/28 09:44:27;;;;;;;3.42;1.30;;;;;;;31.32;24.72;101609.09;4985155;28;20030;-80
2022/07/28 09:46:56;;;;;;;4.70;1.27;;;;;;;31.11;24.67;101608.00;5010805;28;20085;-80
2022/07/28 09:49:39;;;;;;;4.28;1.33;;;;;;;31.20;25.00;101598.59;4986999;28;20035;-80
2022/07/28 09:52:05;;;;;;;7.28;1.40;;;;;;;30.88;25.62;101604.56;4981449;28;20031;-79
2022/07/28 09:54:31;;;;;;;3.63;1.25;;;;;;;31.42;24.70;101607.72;4995246;28;20033;-80
2022/07/28 09:56:56;;;;;;;3.78;1.65;;;;;;;31.68;23.88;101609.00;4997895;28;20054;-80
2022/07/28 09:59:22;;;;;;;3.60;1.48;;;;;;;32.38;23.10;101604.44;4979507;28;20100;-81
2022/07/28 10:01:52;;;;;;;3.97;1.23;;;;;;;32.42;23.32;101608.53;4987708;28;20053;-80
2022/07/28 10:04:30;;;;;;;5.43;1.83;;;;;;;32.41;24.18;101602.16;4977587;28;20038;-80
2022/07/28 10:07:10;;;;;;;5.18;1.55;;;;;;;31.85;24.17;101609.59;4994937;28;20031;-80
2022/07/28 10:09:37;;;;;;;5.05;1.50;;;;;;;30.97;24.56;101614.38;4995904;28;20029;-79
2022/07/28 10:12:33;;;;;;;4.85;1.27;;;;;;;31.31;25.82;101608.25;5000428;28;20302;-79
2022/07/28 10:17:56;;;;;;;4.28;1.45;;;;;;;31.18;24.00;101600.66;4979096;28;20318;-80
2022/07/28 10:20:22;;;;;;;4.78;1.30;;;;;;;31.64;23.58;101594.78;5008087;28;20053;-80
2022/07/28 10:22:48;;;;;;;4.80;1.40;;;;;;;32.02;23.56;101599.97;4973924;28;20019;-79
2022/07/28 10:25:15;;;;;;;3.17;1.00;;;;;;;32.28;23.29;101598.47;4976695;28;20066;-79
2022/07/28 10:27:41;;;;;;;7.13;1.50;;;;;;;31.57;23.88;101593.06;4975011;28;20027;-80
2022/07/28 10:30:07;;;;;;;3.33;1.33;;;;;;;31.73;23.71;101590.00;4995666;28;20361;-79
2022/07/28 10:32:40;;;;;;;3.63;1.58;;;;;;;32.14;23.45;101595.59;4981297;28;20062;-80
2022/07/28 10:35:09;;;;;;;2.88;1.48;;;;;;;32.17;22.39;101586.94;4981057;28;20031;-79
2022/07/28 10:37:42;;;;;;;3.30;1.23;;;;;;;31.98;23.09;101591.28;4987390;28;20472;-81
2022/07/28 10:40:10;;;;;;;1.85;0.98;;;;;;;32.39;22.08;101589.66;4987606;28;20479;-81
2022/07/28 10:42:38;;;;;;;2.72;1.35;;;;;;;33.16;22.20;101578.28;4972024;28;20033;-80
2022/07/28 10:45:03;;;;;;;2.25;1.10;;;;;;;34.05;21.10;101579.84;4975290;28;20031;-80
2022/07/28 10:47:29;;;;;;;4.68;1.60;;;;;;;32.93;21.79;101581.41;4984866;28;20391;-82
2022/07/28 10:49:55;;;;;;;5.72;1.42;;;;;;;32.64;21.56;101585.31;4980656;28;20030;-81
2022/07/28 10:52:22;;;;;;;2.47;1.10;;;;;;;33.61;20.74;101584.09;4986479;28;20053;-79
2022/07/28 10:55:15;;;;;;;3.10;1.25;;;;;;;34.71;20.54;101591.78;4986990;28;20026;-79
2022/07/28 10:57:55;;;;;;;4.07;1.08;;;;;;;35.00;19.25;101588.44;4983677;28;20117;-80
2022/07/28 11:00:24;;;;;;;1.80;0.98;;;;;;;34.71;19.67;101577.94;4983945;28;20318;-79
2022/07/28 11:03:00;;;;;;;3.53;1.08;;;;;;;34.45;19.84;101577.81;4980549;28;20034;-81
2022/07/28 11:05:39;;;;;;;2.00;1.17;;;;;;;34.70;20.31;101585.41;4985480;28;20106;-80
2022/07/28 11:08:08;;;;;;;2.67;1.05;;;;;;;35.32;20.04;101575.44;4975842;28;20086;-80
2022/07/28 11:10:45;;;;;;;3.53;0.90;;;;;;;35.62;19.28;101567.38;4976497;28;20035;-82
2022/07/28 11:13:26;;;;;;;4.03;1.02;;;;;;;35.48;19.06;101571.31;4979676;28;20034;-81
2022/07/28 11:15:53;;;;;;;4.38;1.13;;;;;;;35.12;19.14;101559.00;4971329;28;20187;-80
2022/07/28 11:18:18;;;;;;;5.05;1.65;;;;;;;34.77;19.28;101566.00;4974084;28;20026;-81
2022/07/28 11:20:56;;;;;;;2.55;1.20;;;;;;;34.04;19.97;101561.56;4984681;28;20105;-81
2022/07/28 11:23:45;;;;;;;3.38;1.38;;;;;;;34.45;20.27;101552.94;4971919;28;20026;-80
2022/07/28 11:26:22;;;;;;;2.80;1.30;;;;;;;34.74;19.51;101552.59;4972807;28;20022;-80
2022/07/28 11:29:02;;;;;;;4.70;1.20;;;;;;;34.86;19.72;101559.13;4982212;28;20034;-80
2022/07/28 11:31:42;;;;;;;15.82;3.58;;;;;;;34.72;19.94;101549.22;4970998;28;20034;-80
2022/07/28 11:34:28;;;;;;;11.05;3.17;;;;;;;34.08;19.57;101550.94;4982535;28;20631;-80
2022/07/28 11:36:56;;;;;;;4.75;1.38;;;;;;;34.04;19.79;101545.00;4968721;28;20047;-80
2022/07/28 11:39:24;;;;;;;11.38;4.45;;;;;;;33.97;20.00;101533.09;4980114;28;20514;-81